Terminal Aerodrome Forecast
Issued by NWS

Home | Current Version | Previous Version | Text Only | Print | Product List | Glossary On
Versions: 1 2 3 4 5 6 7 8 9 10 11 12 13 14 15 16 17 18 19
000
FTUS45 KGJT 271123
TAFEGE
TAF
KEGE 271123Z 2712/2812 22005KT P6SM SCT090 BKN130
     FM272100 22007KT P6SM VCSH BKN070
     FM280300 VRB03KT P6SM VCSH BKN060
     FM280800 00000KT P6SM VCSH BKN025
     FM281100 00000KT 3SM -SHRA BKN015
      AMD LTD TO CLD VIS AND WIND TIL 271300=

USA.gov is the U.S. government's official web portal to all federal, state and local government web resources and services.